Time;durP1;ratioP1;P1;durP2;ratioP2;P2;SDS_P1;SDS_P2;PMS_P1;PMS_P2;Temp;Humidity;BMP_temperature;BMP_pressure;BME280_temperature;BME280_humidity;BME280_pressure;Samples;Min_cycle;Max_cycle;Signal;HPM_P1;HPM_P2
2023/09/07 00:01:57;;;;;;;6.95;3.75;;;;;;;25.00;43.32;100926.56;5114585;28;20051;-67
2023/09/07 00:04:29;;;;;;;8.07;3.80;;;;;;;24.99;43.16;100928.41;5114351;28;20052;-67
2023/09/07 00:06:59;;;;;;;6.40;3.53;;;;;;;24.96;43.39;100930.66;5114444;28;20093;-67
2023/09/07 00:09:31;;;;;;;7.65;3.72;;;;;;;24.95;43.29;100928.94;5114185;28;20047;-68
2023/09/07 00:11:59;;;;;;;6.25;3.88;;;;;;;24.92;43.52;100940.19;5114649;28;20463;-67
2023/09/07 00:14:28;;;;;;;6.65;3.92;;;;;;;24.92;43.29;100941.06;5114194;28;20518;-67
2023/09/07 00:16:57;;;;;;;6.97;3.65;;;;;;;24.88;43.46;100934.22;5114224;28;20089;-68
2023/09/07 00:19:31;;;;;;;7.22;3.55;;;;;;;24.88;43.68;100936.09;5114134;28;20044;-68
2023/09/07 00:22:00;;;;;;;5.82;4.03;;;;;;;24.85;43.79;100937.28;5114057;28;20481;-68
2023/09/07 00:24:29;;;;;;;6.82;3.90;;;;;;;24.82;43.62;100932.19;5114117;28;20096;-68
2023/09/07 00:26:58;;;;;;;8.00;3.60;;;;;;;24.82;43.83;100932.19;5114046;28;20041;-68
2023/09/07 00:29:29;;;;;;;5.32;3.38;;;;;;;24.80;43.81;100931.47;5096051;28;20146;-68
2023/09/07 00:31:57;;;;;;;6.13;3.58;;;;;;;24.78;43.58;100925.34;5113454;28;20044;-68
2023/09/07 00:34:27;;;;;;;6.53;3.75;;;;;;;24.71;43.72;100919.72;5113975;28;20051;-69
2023/09/07 00:36:56;;;;;;;6.25;3.65;;;;;;;24.73;43.70;100928.56;5113863;28;20050;-68
2023/09/07 00:39:24;;;;;;;6.13;3.53;;;;;;;24.70;43.72;100928.03;5096000;28;20059;-68
2023/09/07 00:41:56;;;;;;;6.10;3.63;;;;;;;24.71;43.59;100924.31;5113824;28;20047;-68
2023/09/07 00:44:24;;;;;;;5.93;3.50;;;;;;;24.67;43.63;100922.94;5113540;28;20043;-68
2023/09/07 00:46:55;;;;;;;7.47;3.50;;;;;;;24.67;43.72;100928.38;5113453;28;20051;-68
2023/09/07 00:49:28;;;;;;;5.80;3.50;;;;;;;24.65;43.59;100927.69;5113766;28;20059;-68
2023/09/07 00:51:57;;;;;;;5.38;3.33;;;;;;;24.63;43.81;100927.03;5113575;28;20051;-68
2023/09/07 00:54:26;;;;;;;7.80;3.60;;;;;;;24.62;43.73;100925.31;5113473;28;20043;-68
2023/09/07 00:56:55;;;;;;;6.45;3.47;;;;;;;24.59;43.62;100925.63;5113359;28;20413;-68
2023/09/07 00:59:24;;;;;;;5.80;3.45;;;;;;;24.58;43.52;100926.66;5113326;28;20048;-68
2023/09/07 01:01:53;;;;;;;6.53;3.53;;;;;;;24.56;43.85;100921.38;5113497;28;20102;-68
2023/09/07 01:04:22;;;;;;;5.32;3.40;;;;;;;24.54;43.80;100926.16;5095530;28;20040;-68
2023/09/07 01:06:59;;;;;;;5.80;3.20;;;;;;;24.52;43.85;100926.31;5113190;28;20047;-68
2023/09/07 01:09:31;;;;;;;5.88;3.47;;;;;;;24.51;43.95;100927.34;5113093;28;20101;-68
2023/09/07 01:12:00;;;;;;;6.90;3.60;;;;;;;24.48;44.18;100924.94;5113065;28;20051;-69
2023/09/07 01:14:30;;;;;;;5.78;3.38;;;;;;;24.47;43.78;100933.28;5113274;28;20783;-68
2023/09/07 01:17:00;;;;;;;6.40;3.97;;;;;;;24.46;43.76;100934.31;5095075;28;20043;-68
2023/09/07 01:19:28;;;;;;;6.53;3.70;;;;;;;24.44;43.84;100923.56;5113001;28;20040;-68
2023/09/07 01:21:58;;;;;;;5.20;3.28;;;;;;;24.42;44.13;100931.06;5112874;28;20047;-68
2023/09/07 01:24:29;;;;;;;4.90;3.38;;;;;;;24.41;44.01;100928.47;5112786;28;20057;-68
2023/09/07 01:26:58;;;;;;;5.45;3.58;;;;;;;24.38;44.04;100924.22;5112730;28;20051;-68
2023/09/07 01:29:29;;;;;;;5.72;3.45;;;;;;;24.37;44.03;100919.78;5112815;28;20047;-67
2023/09/07 01:31:59;;;;;;;;;;;;;;;24.35;44.00;100930.00;5113113;28;20136;-68
2023/09/07 01:34:28;;;;;;;6.00;3.63;;;;;;;24.27;43.98;100905.41;5112737;28;19923;-68
2023/09/07 01:37:00;;;;;;;5.93;3.50;;;;;;;24.32;44.00;100918.56;5112614;28;20491;-68
2023/09/07 01:39:30;;;;;;;5.90;3.40;;;;;;;24.30;43.99;100920.56;5112589;28;20461;-68
2023/09/07 01:42:01;;;;;;;5.60;3.55;;;;;;;24.28;44.14;100918.88;5112362;28;20280;-68
2023/09/07 01:44:29;;;;;;;6.45;3.65;;;;;;;24.25;44.23;100926.53;5111946;28;20548;-68
2023/09/07 01:46:58;;;;;;;5.82;3.22;;;;;;;24.24;44.32;100927.56;5112174;28;20051;-68
2023/09/07 01:49:27;;;;;;;5.57;3.50;;;;;;;24.21;44.35;100926.00;5112735;28;20434;-68
2023/09/07 01:51:56;;;;;;;6.93;3.38;;;;;;;24.21;44.32;100922.41;5112314;28;20403;-68
2023/09/07 01:54:25;;;;;;;5.68;3.42;;;;;;;24.20;44.26;100931.59;5112610;28;20050;-68
2023/09/07 01:56:55;;;;;;;5.40;3.50;;;;;;;24.18;44.48;100917.31;5112332;28;20065;-68
2023/09/07 01:59:23;;;;;;;5.93;3.47;;;;;;;24.15;44.43;100914.91;5112191;28;20040;-68
2023/09/07 02:01:51;;;;;;;5.55;3.38;;;;;;;24.14;44.48;100924.97;5112192;28;20050;-68
2023/09/07 02:04:20;;;;;;;6.60;3.58;;;;;;;24.11;44.68;100919.81;5112048;28;20044;-68
2023/09/07 02:06:48;;;;;;;5.18;3.13;;;;;;;24.12;44.45;100929.69;5094065;28;20043;-68
2023/09/07 02:09:16;;;;;;;5.88;3.60;;;;;;;24.11;44.43;100927.13;5111312;28;20553;-68
2023/09/07 02:11:48;;;;;;;5.60;3.60;;;;;;;24.09;44.33;100929.19;5111965;28;20054;-68
2023/09/07 02:14:16;;;;;;;5.35;3.60;;;;;;;24.06;44.33;100930.38;5093908;28;20381;-68
2023/09/07 02:16:45;;;;;;;6.55;3.70;;;;;;;24.05;44.41;100922.38;5111791;28;20465;-68
2023/09/07 02:19:16;;;;;;;5.80;3.63;;;;;;;24.03;44.54;100925.25;5112260;28;20066;-68
2023/09/07 02:21:45;;;;;;;6.72;3.42;;;;;;;24.01;44.46;100926.41;5112082;28;20429;-68
2023/09/07 02:24:13;;;;;;;7.22;3.60;;;;;;;23.99;44.44;100921.97;5112036;28;20040;-68
2023/09/07 02:26:45;;;;;;;6.18;3.58;;;;;;;23.97;44.58;100926.75;5112151;28;20055;-68
2023/09/07 02:29:15;;;;;;;5.95;3.42;;;;;;;23.97;44.42;100925.91;5111886;28;20145;-68
2023/09/07 02:31:44;;;;;;;6.45;3.53;;;;;;;23.95;44.50;100926.06;5111773;28;20213;-68
2023/09/07 02:34:12;;;;;;;5.90;3.80;;;;;;;23.93;44.47;100922.66;5112082;28;20039;-68
2023/09/07 02:36:43;;;;;;;6.75;3.85;;;;;;;23.92;44.63;100920.06;5111867;28;20376;-68
2023/09/07 02:39:12;;;;;;;6.40;3.60;;;;;;;23.90;44.62;100925.69;5111912;28;20044;-68
2023/09/07 02:41:41;;;;;;;6.05;3.75;;;;;;;23.88;44.98;100927.72;5111678;28;20044;-68
2023/09/07 02:44:09;;;;;;;5.43;3.58;;;;;;;23.85;44.75;100924.47;5093661;28;20534;-68
2023/09/07 02:46:39;;;;;;;5.38;3.70;;;;;;;23.87;44.74;100933.34;5111796;28;20059;-68
2023/09/07 02:49:07;;;;;;;7.20;3.60;;;;;;;23.84;44.69;100937.25;5112013;28;20143;-68
2023/09/07 02:51:38;;;;;;;5.53;3.83;;;;;;;23.82;44.80;100928.34;5111678;28;20130;-68
2023/09/07 02:54:07;;;;;;;6.70;3.80;;;;;;;23.81;44.75;100932.09;5093628;28;20052;-68
2023/09/07 02:56:35;;;;;;;7.10;3.25;;;;;;;23.80;44.85;100932.28;5114954;28;20122;-68
2023/09/07 02:59:04;;;;;;;6.05;3.45;;;;;;;23.79;44.71;100928.69;5115597;28;20138;-68
2023/09/07 03:01:32;;;;;;;6.35;3.60;;;;;;;23.76;44.87;100926.31;5115853;28;20097;-68
2023/09/07 03:04:03;;;;;;;6.68;3.80;;;;;;;23.76;44.85;100929.03;5115702;28;20044;-68
2023/09/07 03:06:31;;;;;;;5.93;3.65;;;;;;;23.73;45.17;100932.03;5115416;28;20044;-68
2023/09/07 03:09:00;;;;;;;5.47;3.40;;;;;;;23.68;44.98;100926.25;5115270;28;20051;-68
2023/09/07 03:11:33;;;;;;;5.75;3.58;;;;;;;23.73;44.93;100933.91;5115258;28;20397;-68
2023/09/07 03:14:02;;;;;;;7.95;3.55;;;;;;;23.66;45.27;100926.41;5115613;28;20096;-68
2023/09/07 03:16:31;;;;;;;5.53;3.90;;;;;;;23.65;45.20;100932.03;5115508;28;20407;-68
2023/09/07 03:18:59;;;;;;;7.00;3.50;;;;;;;23.63;45.19;100928.59;5081156;28;20075;-68
2023/09/07 03:21:29;;;;;;;5.28;3.58;;;;;;;23.62;45.35;100935.03;5115096;28;20047;-68
2023/09/07 03:23:59;;;;;;;5.35;3.40;;;;;;;23.61;45.37;100941.50;5115070;28;20082;-68
2023/09/07 03:26:28;;;;;;;6.07;3.70;;;;;;;23.58;45.12;100937.22;5115027;28;20086;-68
2023/09/07 03:28:57;;;;;;;8.20;3.42;;;;;;;23.58;45.27;100933.63;5115013;28;20052;-68
2023/09/07 03:31:26;;;;;;;5.90;3.40;;;;;;;23.56;45.39;100936.53;5115088;28;20047;-68
2023/09/07 03:33:54;;;;;;;8.25;3.95;;;;;;;23.56;45.45;100943.84;5115014;28;20092;-68
2023/09/07 03:36:23;;;;;;;6.43;3.65;;;;;;;23.54;45.52;100938.53;5114856;28;20405;-68
2023/09/07 03:38:52;;;;;;;7.40;3.60;;;;;;;23.55;45.52;100942.13;5115088;28;20048;-68
2023/09/07 03:41:30;;;;;;;6.13;3.45;;;;;;;23.50;45.63;100933.56;5114968;28;20575;-68
2023/09/07 03:43:58;;;;;;;5.18;3.17;;;;;;;23.51;45.65;100946.16;5114919;28;20048;-68
2023/09/07 03:46:29;;;;;;;5.60;3.63;;;;;;;23.51;45.70;100940.72;5114644;28;20511;-68
2023/09/07 03:48:58;;;;;;;6.78;4.07;;;;;;;23.49;45.64;100943.63;5114438;28;20043;-67
2023/09/07 03:51:26;;;;;;;5.95;3.70;;;;;;;23.47;45.79;100934.75;5114425;28;20044;-68
2023/09/07 03:53:59;;;;;;;6.97;3.67;;;;;;;23.46;45.81;100937.66;5114519;28;20052;-69
2023/09/07 03:56:27;;;;;;;5.35;3.50;;;;;;;23.44;45.88;100945.94;5114537;28;20051;-68
2023/09/07 03:58:58;;;;;;;6.00;4.00;;;;;;;23.43;45.81;100938.78;5114415;28;20047;-68
2023/09/07 04:01:28;;;;;;;8.18;4.45;;;;;;;23.40;45.90;100945.41;5114550;28;20126;-68
2023/09/07 04:03:56;;;;;;;5.97;3.83;;;;;;;23.40;45.85;100941.84;5096696;28;20047;-67
2023/09/07 04:06:26;;;;;;;7.20;4.00;;;;;;;23.37;46.06;100945.75;5113808;28;20057;-67
2023/09/07 04:08:55;;;;;;;5.30;3.70;;;;;;;23.36;45.99;100943.19;5114224;28;20044;-68
2023/09/07 04:11:24;;;;;;;6.15;3.90;;;;;;;23.36;45.98;100949.50;5113997;28;20549;-68
2023/09/07 04:13:54;;;;;;;6.38;4.13;;;;;;;23.32;46.20;100945.34;5114151;28;20131;-68
2023/09/07 04:16:23;;;;;;;5.88;3.80;;;;;;;23.32;46.18;100953.53;5114312;28;20055;-68
2023/09/07 04:18:51;;;;;;;6.55;3.88;;;;;;;23.31;46.03;100950.97;5114325;28;20452;-68
2023/09/07 04:21:21;;;;;;;7.88;3.97;;;;;;;23.29;46.34;100959.28;5114187;28;20090;-68
2023/09/07 04:23:51;;;;;;;7.13;4.22;;;;;;;23.30;46.08;100952.81;5114078;28;20052;-69
2023/09/07 04:26:27;;;;;;;8.07;4.00;;;;;;;23.28;46.38;100954.84;5113819;28;20048;-68
2023/09/07 04:28:56;;;;;;;7.03;4.38;;;;;;;23.27;46.13;100950.44;5114015;28;20130;-68
2023/09/07 04:31:27;;;;;;;6.28;3.85;;;;;;;23.24;46.30;100956.16;5114079;28;20051;-69
2023/09/07 04:33:55;;;;;;;7.32;3.90;;;;;;;23.24;46.47;100961.59;5113686;28;20531;-68
2023/09/07 04:36:27;;;;;;;8.52;4.20;;;;;;;23.24;46.39;100964.34;5095777;28;20083;-68
2023/09/07 04:38:56;;;;;;;6.80;3.63;;;;;;;23.21;46.38;100961.94;5113637;28;20055;-69
2023/09/07 04:41:26;;;;;;;6.05;4.00;;;;;;;23.23;46.44;100964.50;5114183;28;20047;-69
2023/09/07 04:44:02;;;;;;;8.30;4.45;;;;;;;23.21;46.45;100961.94;5114407;28;20044;-68
2023/09/07 04:46:30;;;;;;;6.85;4.43;;;;;;;23.21;46.45;100955.63;5113494;28;20097;-68
2023/09/07 04:48:58;;;;;;;7.43;4.18;;;;;;;23.18;46.58;100964.97;5113306;28;20526;-68
2023/09/07 04:51:27;;;;;;;9.07;4.00;;;;;;;23.18;46.40;100961.41;5113487;28;20062;-68
2023/09/07 04:53:58;;;;;;;7.75;3.80;;;;;;;23.17;46.45;100957.81;5113601;28;20199;-68
2023/09/07 04:56:28;;;;;;;7.20;4.30;;;;;;;23.16;46.33;100961.53;5113448;28;20047;-68
2023/09/07 04:58:57;;;;;;;6.68;4.20;;;;;;;23.16;46.29;100961.53;5113465;28;20051;-68
2023/09/07 05:01:26;;;;;;;7.90;4.05;;;;;;;23.14;46.49;100960.84;5113084;28;20437;-68
2023/09/07 05:03:55;;;;;;;6.35;4.45;;;;;;;23.14;46.52;100969.00;5113091;28;20051;-68
2023/09/07 05:06:24;;;;;;;7.68;4.22;;;;;;;23.12;46.19;100973.75;5112880;28;20045;-68
2023/09/07 05:08:52;;;;;;;6.88;4.50;;;;;;;23.13;46.39;100970.88;5113049;28;20043;-68
2023/09/07 05:11:21;;;;;;;6.35;4.30;;;;;;;23.12;46.69;100979.19;5112860;28;20059;-68
2023/09/07 05:13:53;;;;;;;8.30;4.35;;;;;;;23.10;46.46;100975.78;5112963;28;20048;-67
2023/09/07 05:16:21;;;;;;;7.55;4.50;;;;;;;23.11;46.63;100983.78;5094585;28;20609;-68
2023/09/07 05:18:53;;;;;;;8.63;4.88;;;;;;;23.08;46.42;100980.53;5111626;28;20052;-68
2023/09/07 05:21:23;;;;;;;9.23;4.35;;;;;;;23.09;46.57;100974.06;5112593;28;20074;-68
2023/09/07 05:23:55;;;;;;;8.23;4.40;;;;;;;23.09;46.49;100974.06;5112685;28;20067;-68
2023/09/07 05:26:24;;;;;;;9.75;4.97;;;;;;;23.09;46.21;100974.06;5112480;28;20079;-68
2023/09/07 05:28:54;;;;;;;7.57;4.38;;;;;;;23.07;46.44;100978.81;5112308;28;20108;-69
2023/09/07 05:31:22;;;;;;;9.05;4.95;;;;;;;23.08;46.91;100983.25;5097625;28;20059;-68
2023/09/07 05:33:52;;;;;;;7.18;4.78;;;;;;;23.07;46.51;100976.97;5092016;28;20054;-68
2023/09/07 05:36:23;;;;;;;7.75;4.43;;;;;;;23.05;46.52;100978.94;5091643;28;20481;-68
2023/09/07 05:38:54;;;;;;;8.02;4.22;;;;;;;23.06;46.59;100977.09;5091833;28;20059;-69
2023/09/07 05:41:22;;;;;;;10.93;4.70;;;;;;;23.07;46.58;100978.81;5091748;28;20127;-68
2023/09/07 05:43:50;;;;;;;14.00;4.85;;;;;;;23.07;46.64;100978.81;5091583;28;20127;-68
2023/09/07 05:46:22;;;;;;;8.43;4.60;;;;;;;23.07;46.63;100981.53;5087320;28;20105;-68
2023/09/07 05:48:52;;;;;;;7.15;4.07;;;;;;;23.05;46.66;100983.53;5112309;28;20048;-68
2023/09/07 05:51:20;;;;;;;8.20;4.70;;;;;;;23.04;46.75;100982.69;5112172;28;20051;-69
2023/09/07 05:53:48;;;;;;;8.57;4.50;;;;;;;23.05;46.63;100988.97;5111676;28;20047;-68
2023/09/07 05:56:16;;;;;;;7.47;4.50;;;;;;;23.04;46.67;100988.13;5111648;28;20046;-69
2023/09/07 05:58:45;;;;;;;7.72;4.20;;;;;;;23.03;46.70;100985.56;5112058;28;20044;-69
2023/09/07 06:01:13;;;;;;;8.93;4.07;;;;;;;23.03;47.11;100985.56;5112102;28;20545;-69
2023/09/07 06:03:43;;;;;;;8.38;4.63;;;;;;;23.03;46.87;100991.00;5111874;28;20044;-70
2023/09/07 06:06:12;;;;;;;8.43;4.13;;;;;;;23.03;47.09;100991.00;5111983;28;20040;-68
2023/09/07 06:08:40;;;;;;;6.10;4.07;;;;;;;23.03;47.02;100994.59;5111826;28;20053;-68
2023/09/07 06:11:09;;;;;;;9.20;4.20;;;;;;;23.01;47.02;100998.47;5111805;28;20496;-68
2023/09/07 06:13:37;;;;;;;7.07;4.32;;;;;;;23.04;46.96;101003.59;5112168;28;20453;-68
2023/09/07 06:16:05;;;;;;;7.80;4.47;;;;;;;23.05;46.99;101005.31;5111273;28;20051;-69
2023/09/07 06:18:34;;;;;;;8.70;4.72;;;;;;;23.06;47.08;101005.16;5111457;28;20062;-68
2023/09/07 06:21:05;;;;;;;9.50;4.22;;;;;;;23.04;47.14;100999.00;5111792;28;20123;-68
2023/09/07 06:23:34;;;;;;;8.05;3.90;;;;;;;23.04;47.19;100999.00;5111433;28;20126;-67
2023/09/07 06:26:02;;;;;;;7.82;4.53;;;;;;;23.07;47.10;101003.31;5093844;28;20407;-68
2023/09/07 06:28:31;;;;;;;10.57;4.43;;;;;;;23.06;46.98;100999.72;5111533;28;20061;-68
2023/09/07 06:31:00;;;;;;;9.02;5.10;;;;;;;23.07;46.99;101008.75;5111401;28;20165;-68
2023/09/07 06:33:28;;;;;;;8.27;4.35;;;;;;;23.07;46.98;101006.03;5111559;28;20077;-68
2023/09/07 06:36:01;;;;;;;7.90;4.30;;;;;;;23.08;46.98;100999.56;5111555;28;20054;-69
2023/09/07 06:38:32;;;;;;;7.95;4.43;;;;;;;23.08;47.13;100999.56;5111453;28;20058;-69
2023/09/07 06:41:01;;;;;;;7.28;4.22;;;;;;;23.07;47.13;101003.31;5111501;28;20048;-67
2023/09/07 06:43:30;;;;;;;9.02;4.47;;;;;;;23.08;47.01;101007.75;5111258;28;20054;-68
2023/09/07 06:46:07;;;;;;;7.82;4.70;;;;;;;23.08;47.05;101003.16;5111376;28;20043;-68
2023/09/07 06:48:36;;;;;;;7.50;4.32;;;;;;;23.09;47.04;101006.72;5111345;28;20553;-68
2023/09/07 06:51:05;;;;;;;8.25;4.30;;;;;;;23.10;47.11;101005.72;5111168;28;20039;-69
2023/09/07 06:53:38;;;;;;;8.10;4.33;;;;;;;23.12;47.25;101017.28;5111433;28;20093;-68
2023/09/07 06:56:24;;;;;;;8.90;4.55;;;;;;;23.12;47.04;101017.28;5110019;28;20051;-67
2023/09/07 06:58:53;;;;;;;8.55;4.80;;;;;;;23.13;46.94;101003.53;5110898;28;20048;-69
2023/09/07 07:01:22;;;;;;;6.97;3.92;;;;;;;23.16;47.61;101010.50;5109339;28;20047;-69
2023/09/07 07:03:50;;;;;;;7.20;4.10;;;;;;;23.21;48.18;101021.81;5108361;28;20044;-69
2023/09/07 07:06:20;;;;;;;6.32;3.92;;;;;;;23.24;47.77;101016.03;5111209;28;20621;-69
2023/09/07 07:08:57;;;;;;;6.53;3.70;;;;;;;23.28;47.78;101020.19;5093181;28;20047;-70
2023/09/07 07:11:25;;;;;;;7.10;3.63;;;;;;;23.28;47.73;101016.59;5109724;28;20092;-69
2023/09/07 07:13:53;;;;;;;6.80;4.05;;;;;;;23.32;47.61;101018.00;5110968;28;20051;-69
2023/09/07 07:16:22;;;;;;;6.38;3.78;;;;;;;23.34;47.52;101021.41;5110715;28;20503;-69
2023/09/07 07:18:53;;;;;;;6.97;3.90;;;;;;;23.35;47.43;101018.53;5111042;28;20043;-73
2023/09/07 07:21:21;;;;;;;6.30;3.70;;;;;;;23.36;47.40;101014.81;5111167;28;20381;-72
2023/09/07 07:23:52;;;;;;;6.35;3.65;;;;;;;23.37;47.38;101027.41;5110272;28;20051;-71
2023/09/07 07:26:22;;;;;;;6.53;3.63;;;;;;;23.37;47.39;101021.97;5111166;28;20126;-77
2023/09/07 07:28:50;;;;;;;5.65;3.58;;;;;;;23.40;47.39;101018.91;5110797;28;20537;-71
2023/09/07 07:31:19;;;;;;;6.25;3.60;;;;;;;23.39;47.16;101022.66;5111310;28;20047;-70
2023/09/07 07:33:49;;;;;;;5.63;3.35;;;;;;;23.41;47.25;101027.94;5092630;28;20048;-69
2023/09/07 07:36:18;;;;;;;5.45;3.38;;;;;;;23.42;47.29;101024.19;5110942;28;20047;-69
2023/09/07 07:38:46;;;;;;;5.30;3.42;;;;;;;23.45;47.17;101029.34;5110886;28;20062;-69
2023/09/07 07:41:16;;;;;;;5.20;3.28;;;;;;;23.47;47.05;101023.75;5093351;28;20044;-70
2023/09/07 07:43:44;;;;;;;5.78;3.38;;;;;;;23.47;46.98;101021.03;5114470;28;20120;-69
2023/09/07 07:46:15;;;;;;;5.38;3.30;;;;;;;23.48;47.22;101023.59;5114267;28;20039;-70
2023/09/07 07:48:44;;;;;;;6.20;3.63;;;;;;;23.49;47.13;101021.72;5114018;28;20047;-71
2023/09/07 07:51:12;;;;;;;6.25;3.33;;;;;;;23.51;47.17;101023.25;5114218;28;20046;-70
2023/09/07 07:53:43;;;;;;;5.95;3.58;;;;;;;23.51;47.27;101022.41;5114303;28;20040;-69
2023/09/07 07:56:17;;;;;;;6.25;3.60;;;;;;;23.53;47.07;101020.38;5114229;28;20054;-70
2023/09/07 07:58:45;;;;;;;5.50;3.50;;;;;;;23.52;47.13;101008.63;5114463;28;20135;-70
2023/09/07 08:01:20;;;;;;;6.00;3.95;;;;;;;23.54;47.10;101016.63;5114231;28;20048;-69
2023/09/07 08:03:49;;;;;;;5.63;3.08;;;;;;;23.54;47.11;101016.63;5112796;28;20052;-69
2023/09/07 08:06:17;;;;;;;5.85;3.70;;;;;;;23.56;47.13;101020.09;5113269;28;20043;-70
2023/09/07 08:08:45;;;;;;;6.22;3.40;;;;;;;23.56;47.10;101020.09;5114410;28;20043;-69
2023/09/07 08:11:14;;;;;;;6.68;3.45;;;;;;;23.57;47.11;101016.34;5114043;28;20062;-70
2023/09/07 08:13:46;;;;;;;6.28;3.38;;;;;;;23.59;47.04;101012.47;5096192;28;20039;-69
2023/09/07 08:16:15;;;;;;;6.13;3.50;;;;;;;23.60;47.27;101014.19;5095524;28;20048;-69
2023/09/07 08:18:45;;;;;;;6.57;3.40;;;;;;;23.61;47.18;101017.75;5113862;28;20116;-70
2023/09/07 08:21:15;;;;;;;5.30;3.55;;;;;;;23.62;47.20;101014.03;5114114;28;20504;-67
2023/09/07 08:23:43;;;;;;;5.45;3.53;;;;;;;23.61;47.27;101013.16;5114045;28;20044;-72
2023/09/07 08:26:14;;;;;;;6.00;3.58;;;;;;;23.60;47.16;101010.59;5113954;28;20048;-70
2023/09/07 08:28:51;;;;;;;5.18;3.20;;;;;;;23.64;47.21;101006.53;5113498;28;20048;-70
2023/09/07 08:31:21;;;;;;;6.72;3.65;;;;;;;23.65;47.31;101011.00;5113722;28;20075;-69
2023/09/07 08:33:51;;;;;;;5.72;3.60;;;;;;;23.67;47.33;101008.97;5113770;28;20134;-70
2023/09/07 08:36:23;;;;;;;6.68;3.47;;;;;;;23.67;47.25;101001.66;5113665;28;20142;-68
2023/09/07 08:38:53;;;;;;;5.60;3.40;;;;;;;23.70;47.32;101000.47;5113591;28;20146;-70
2023/09/07 08:41:22;;;;;;;6.95;3.67;;;;;;;23.72;47.34;101003.03;5113352;28;20510;-69
2023/09/07 08:43:54;;;;;;;5.28;3.60;;;;;;;23.73;47.49;101002.00;5113364;28;20090;-70
2023/09/07 08:46:24;;;;;;;6.43;3.72;;;;;;;23.73;47.27;100994.69;5113694;28;20157;-69
2023/09/07 08:48:59;;;;;;;6.18;3.92;;;;;;;23.76;47.29;100999.84;5113449;28;20131;-69
2023/09/07 08:51:31;;;;;;;5.93;3.55;;;;;;;23.77;47.48;100989.81;5113457;28;20055;-70
2023/09/07 08:54:07;;;;;;;5.53;3.63;;;;;;;23.77;47.34;100987.94;5112870;28;20085;-69
2023/09/07 08:56:36;;;;;;;5.25;3.42;;;;;;;23.78;47.41;100983.34;5113430;28;20043;-69
2023/09/07 08:59:06;;;;;;;5.55;3.67;;;;;;;23.80;47.22;100990.31;5113170;28;20050;-69
2023/09/07 09:01:37;;;;;;;9.90;3.63;;;;;;;23.79;47.25;100983.16;5113492;28;20452;-69
2023/09/07 09:04:07;;;;;;;5.22;3.30;;;;;;;23.83;47.24;100989.13;5113543;28;20453;-68
2023/09/07 09:06:35;;;;;;;6.03;3.50;;;;;;;23.80;47.40;100979.44;5112989;28;20070;-68
2023/09/07 09:09:05;;;;;;;6.43;3.78;;;;;;;23.84;47.37;100986.28;5113254;28;20047;-69
2023/09/07 09:11:33;;;;;;;6.90;3.83;;;;;;;23.86;47.30;100984.25;5112764;28;20061;-69
2023/09/07 09:14:06;;;;;;;6.55;3.63;;;;;;;23.88;47.61;100982.22;5113104;28;20116;-69
2023/09/07 09:16:36;;;;;;;5.75;3.38;;;;;;;23.89;47.18;100981.19;5112764;28;20090;-69
2023/09/07 09:19:04;;;;;;;5.97;3.67;;;;;;;23.91;47.32;100975.56;5112744;28;20047;-69
2023/09/07 09:21:33;;;;;;;5.70;3.42;;;;;;;23.93;47.14;100973.53;5112600;28;20044;-69
2023/09/07 09:24:01;;;;;;;5.45;3.33;;;;;;;23.92;47.22;100975.41;5113007;28;20079;-68
2023/09/07 09:26:30;;;;;;;5.95;3.58;;;;;;;23.95;47.20;100975.09;5112787;28;20106;-69
2023/09/07 09:29:01;;;;;;;6.15;3.47;;;;;;;23.97;47.05;100980.41;5112391;28;20044;-69
2023/09/07 09:31:32;;;;;;;5.35;3.30;;;;;;;23.99;47.28;100973.75;5112326;28;20112;-69
2023/09/07 09:34:02;;;;;;;6.88;3.63;;;;;;;24.01;47.19;100970.00;5112167;28;20136;-69
2023/09/07 09:36:37;;;;;;;6.50;3.28;;;;;;;24.02;46.99;100971.72;5112635;28;20047;-68
2023/09/07 09:39:06;;;;;;;5.35;3.40;;;;;;;24.06;47.15;100973.13;5112613;28;20126;-68
2023/09/07 09:41:34;;;;;;;5.60;3.20;;;;;;;24.07;47.04;100969.38;5112601;28;20047;-68
2023/09/07 09:44:08;;;;;;;5.47;3.67;;;;;;;24.08;47.15;100962.91;5112494;28;20087;-69
2023/09/07 09:46:39;;;;;;;6.35;3.42;;;;;;;24.11;47.18;100974.31;5112128;28;20040;-70
2023/09/07 09:49:13;;;;;;;6.43;3.72;;;;;;;24.13;47.33;100968.75;5112503;28;20039;-70
2023/09/07 09:51:43;;;;;;;;;;;;;;;24.16;47.27;100965.66;5112649;28;20059;-69
2023/09/07 09:54:12;;;;;;;5.97;3.45;;;;;;;24.18;47.19;100963.63;5112140;28;19920;-70
2023/09/07 09:56:42;;;;;;;5.63;3.60;;;;;;;24.20;47.15;100967.03;5112073;28;20047;-69
2023/09/07 09:59:10;;;;;;;6.45;3.50;;;;;;;24.21;47.19;100968.75;5111977;28;20044;-69
2023/09/07 10:01:43;;;;;;;5.80;3.40;;;;;;;24.24;47.06;100971.16;5112178;28;20586;-68
2023/09/07 10:04:23;;;;;;;5.38;3.38;;;;;;;24.27;46.91;100962.66;5111874;28;20047;-68
2023/09/07 10:06:54;;;;;;;5.07;3.30;;;;;;;24.29;47.36;100957.88;5111671;28;20044;-69
2023/09/07 10:09:23;;;;;;;5.30;3.35;;;;;;;24.32;47.17;100956.72;5111805;28;20138;-69
2023/09/07 10:11:59;;;;;;;5.88;3.25;;;;;;;24.36;47.05;100960.84;5111593;28;20090;-69
2023/09/07 10:14:39;;;;;;;5.60;3.80;;;;;;;24.39;47.03;100958.63;5111639;28;20044;-69
2023/09/07 10:17:09;;;;;;;8.48;3.65;;;;;;;24.41;47.27;100962.03;5111620;28;20083;-68
2023/09/07 10:19:49;;;;;;;6.20;3.80;;;;;;;24.44;47.11;100961.75;5111652;28;20066;-67
2023/09/07 10:22:25;;;;;;;5.90;3.28;;;;;;;24.49;47.29;100959.34;5112028;28;20054;-69
2023/09/07 10:24:59;;;;;;;7.20;3.42;;;;;;;24.51;47.21;100956.47;5111828;28;20430;-69
2023/09/07 10:27:38;;;;;;;5.03;3.22;;;;;;;24.54;47.18;100962.44;5111697;28;20047;-69
2023/09/07 10:30:12;;;;;;;6.05;3.47;;;;;;;24.59;47.17;100963.81;5111545;28;20135;-69
2023/09/07 10:32:41;;;;;;;6.32;3.40;;;;;;;24.63;47.49;100954.31;5111488;28;20527;-69
2023/09/07 10:35:21;;;;;;;7.28;3.13;;;;;;;24.68;47.23;100957.38;5111718;28;20047;-69
2023/09/07 10:37:50;;;;;;;7.22;3.35;;;;;;;24.71;47.22;100951.59;5111549;28;20404;-68
2023/09/07 10:40:22;;;;;;;8.50;3.83;;;;;;;24.74;47.29;100945.78;5111629;28;20056;-68
2023/09/07 10:42:50;;;;;;;6.18;3.58;;;;;;;24.79;47.33;100946.97;5111214;28;20047;-68
2023/09/07 10:45:18;;;;;;;5.40;3.45;;;;;;;24.84;47.28;100943.75;5112033;28;20096;-68
2023/09/07 10:47:49;;;;;;;5.40;3.22;;;;;;;24.87;47.38;100943.41;5111702;28;20454;-69
2023/09/07 10:50:19;;;;;;;5.10;3.28;;;;;;;24.91;47.43;100941.22;5111504;28;20113;-68
2023/09/07 10:52:50;;;;;;;7.00;3.75;;;;;;;24.96;47.30;100941.56;5111521;28;20043;-69
2023/09/07 10:55:21;;;;;;;5.03;3.25;;;;;;;25.00;47.39;100938.34;5111316;28;20445;-69
2023/09/07 10:57:50;;;;;;;5.57;3.40;;;;;;;25.05;47.43;100933.25;5111343;28;20083;-68
2023/09/07 11:00:18;;;;;;;5.20;3.30;;;;;;;25.08;47.06;100935.63;5111313;28;20507;-68
2023/09/07 11:02:46;;;;;;;5.45;3.28;;;;;;;25.15;47.11;100929.50;5111594;28;20048;-68
2023/09/07 11:05:20;;;;;;;6.60;3.30;;;;;;;25.17;47.13;100922.84;5111380;28;20079;-68
2023/09/07 11:07:48;;;;;;;6.05;3.42;;;;;;;25.24;46.87;100925.75;5111310;28;20411;-69
2023/09/07 11:10:17;;;;;;;6.43;3.28;;;;;;;25.29;47.04;100918.75;5111116;28;20048;-68
2023/09/07 11:12:48;;;;;;;5.63;3.40;;;;;;;25.34;47.07;100916.34;5111597;28;20075;-68
2023/09/07 11:15:20;;;;;;;5.78;3.55;;;;;;;25.39;47.27;100921.31;5111229;28;20048;-68
2023/09/07 11:17:48;;;;;;;6.50;3.33;;;;;;;25.42;47.00;100910.03;5114868;28;20120;-68
2023/09/07 11:20:17;;;;;;;5.22;3.42;;;;;;;25.48;47.26;100913.94;5115065;28;20400;-68
2023/09/07 11:22:47;;;;;;;5.72;3.38;;;;;;;25.53;47.03;100906.94;5115283;28;20048;-68
2023/09/07 11:25:22;;;;;;;6.07;3.45;;;;;;;25.58;47.33;100910.00;5114944;28;20051;-68
2023/09/07 11:27:54;;;;;;;7.20;3.58;;;;;;;25.61;47.20;100906.91;5114927;28;20044;-67
2023/09/07 11:30:24;;;;;;;6.78;3.72;;;;;;;25.69;47.21;100912.38;5114865;28;20051;-68
2023/09/07 11:33:01;;;;;;;5.50;3.38;;;;;;;25.74;47.29;100905.56;5115377;28;20459;-67
2023/09/07 11:35:30;;;;;;;6.75;3.72;;;;;;;25.79;47.40;100895.81;5114525;28;20051;-68
2023/09/07 11:38:03;;;;;;;5.68;3.20;;;;;;;25.83;47.24;100894.41;5114400;28;20128;-68
2023/09/07 11:40:35;;;;;;;7.30;3.95;;;;;;;25.88;47.17;100893.91;5114715;28;20047;-68